sensor_id;sensor_type;location;lat;lon;timestamp;pressure;altitude;pressure_sealevel;temperature;humidity
76205;BME280;64986;55.672;37.628;2023-04-25T00:02:12;99302.63;;;13.58;39.37
76205;BME280;64986;55.672;37.628;2023-04-25T00:04:38;99293.97;;;13.51;39.29
76205;BME280;64986;55.672;37.628;2023-04-25T00:07:04;99289.59;;;13.45;39.43
76205;BME280;64986;55.672;37.628;2023-04-25T00:09:30;99299.50;;;13.49;39.26
76205;BME280;64986;55.672;37.628;2023-04-25T00:11:55;99287.78;;;13.45;39.63
76205;BME280;64986;55.672;37.628;2023-04-25T00:14:21;99298.69;;;13.49;40.44
76205;BME280;64986;55.672;37.628;2023-04-25T00:16:46;99317.34;;;13.89;38.38
76205;BME280;64986;55.672;37.628;2023-04-25T00:19:13;99309.59;;;14.34;36.66
76205;BME280;64986;55.672;37.628;2023-04-25T00:21:39;99296.94;;;14.48;36.90
76205;BME280;64986;55.672;37.628;2023-04-25T00:24:06;99292.19;;;14.62;35.46
76205;BME280;64986;55.672;37.628;2023-04-25T00:26:34;99292.38;;;14.72;36.18
76205;BME280;64986;55.672;37.628;2023-04-25T00:29:00;99288.31;;;14.53;37.83
76205;BME280;64986;55.672;37.628;2023-04-25T00:31:26;99282.34;;;14.22;39.34
76205;BME280;64986;55.672;37.628;2023-04-25T00:33:51;99289.84;;;14.02;39.91
76205;BME280;64986;55.672;37.628;2023-04-25T00:36:17;99288.47;;;13.87;40.84
76205;BME280;64986;55.672;37.628;2023-04-25T00:38:43;99288.84;;;13.79;40.96
76205;BME280;64986;55.672;37.628;2023-04-25T00:41:08;99301.84;;;13.69;41.26
76205;BME280;64986;55.672;37.628;2023-04-25T00:43:36;99292.94;;;13.52;41.91
76205;BME280;64986;55.672;37.628;2023-04-25T00:46:02;99298.47;;;13.39;42.18
76205;BME280;64986;55.672;37.628;2023-04-25T00:48:28;99289.22;;;13.29;42.79
76205;BME280;64986;55.672;37.628;2023-04-25T00:50:55;99287.28;;;13.25;43.00
76205;BME280;64986;55.672;37.628;2023-04-25T00:53:22;99282.97;;;13.12;42.68
76205;BME280;64986;55.672;37.628;2023-04-25T00:55:48;99289.28;;;13.11;43.21
76205;BME280;64986;55.672;37.628;2023-04-25T00:58:17;99286.72;;;13.04;42.81
76205;BME280;64986;55.672;37.628;2023-04-25T01:00:47;99294.53;;;12.99;42.93
76205;BME280;64986;55.672;37.628;2023-04-25T01:03:14;99286.47;;;12.94;43.17
76205;BME280;64986;55.672;37.628;2023-04-25T01:05:42;99292.88;;;12.87;43.61
76205;BME280;64986;55.672;37.628;2023-04-25T01:08:09;99284.34;;;12.73;43.46
76205;BME280;64986;55.672;37.628;2023-04-25T01:10:35;99266.81;;;12.60;44.73
76205;BME280;64986;55.672;37.628;2023-04-25T01:13:01;99280.16;;;12.65;44.92
76205;BME280;64986;55.672;37.628;2023-04-25T01:15:27;99275.34;;;12.62;44.85
76205;BME280;64986;55.672;37.628;2023-04-25T01:17:53;99277.16;;;12.62;44.81
76205;BME280;64986;55.672;37.628;2023-04-25T01:20:20;99280.50;;;12.69;44.27
76205;BME280;64986;55.672;37.628;2023-04-25T01:22:47;99281.84;;;12.78;44.04
76205;BME280;64986;55.672;37.628;2023-04-25T01:25:13;99290.81;;;12.89;43.93
76205;BME280;64986;55.672;37.628;2023-04-25T01:27:40;99276.81;;;12.88;43.90
76205;BME280;64986;55.672;37.628;2023-04-25T01:30:06;99270.63;;;12.94;44.40
76205;BME280;64986;55.672;37.628;2023-04-25T01:32:32;99270.16;;;12.97;44.07
76205;BME280;64986;55.672;37.628;2023-04-25T01:35:08;99266.06;;;13.01;43.47
76205;BME280;64986;55.672;37.628;2023-04-25T01:37:41;99257.75;;;12.98;44.45
76205;BME280;64986;55.672;37.628;2023-04-25T01:40:09;99271.69;;;13.05;43.55
76205;BME280;64986;55.672;37.628;2023-04-25T01:42:36;99264.44;;;13.00;43.68
76205;BME280;64986;55.672;37.628;2023-04-25T01:45:02;99260.69;;;13.08;44.12
76205;BME280;64986;55.672;37.628;2023-04-25T01:47:28;99265.50;;;13.11;43.65
76205;BME280;64986;55.672;37.628;2023-04-25T01:49:53;99262.28;;;13.09;44.34
76205;BME280;64986;55.672;37.628;2023-04-25T01:52:19;99256.19;;;13.09;44.18
76205;BME280;64986;55.672;37.628;2023-04-25T01:54:44;99260.69;;;13.08;44.05
76205;BME280;64986;55.672;37.628;2023-04-25T01:57:13;99257.81;;;13.10;45.62
76205;BME280;64986;55.672;37.628;2023-04-25T01:59:40;99256.19;;;13.09;44.27
76205;BME280;64986;55.672;37.628;2023-04-25T02:02:06;99255.41;;;13.08;44.71
76205;BME280;64986;55.672;37.628;2023-04-25T02:04:32;99252.94;;;13.06;44.92
76205;BME280;64986;55.672;37.628;2023-04-25T02:06:57;99254.22;;;13.04;44.00
76205;BME280;64986;55.672;37.628;2023-04-25T02:09:23;99249.84;;;12.98;44.45
76205;BME280;64986;55.672;37.628;2023-04-25T02:11:49;99249.84;;;12.98;44.28
76205;BME280;64986;55.672;37.628;2023-04-25T02:14:15;99258.38;;;13.00;44.41
76205;BME280;64986;55.672;37.628;2023-04-25T02:16:41;99257.31;;;13.01;44.39
76205;BME280;64986;55.672;37.628;2023-04-25T02:19:09;99252.94;;;13.06;43.80
76205;BME280;64986;55.672;37.628;2023-04-25T02:21:35;99255.50;;;13.13;43.24
76205;BME280;64986;55.672;37.628;2023-04-25T02:24:01;99247.72;;;13.18;43.51
76205;BME280;64986;55.672;37.628;2023-04-25T02:26:26;99251.09;;;13.25;43.17
76205;BME280;64986;55.672;37.628;2023-04-25T02:28:52;99250.19;;;13.31;43.71
76205;BME280;64986;55.672;37.628;2023-04-25T02:31:17;99251.22;;;13.42;43.32
76205;BME280;64986;55.672;37.628;2023-04-25T02:33:43;99250.31;;;13.48;43.12
76205;BME280;64986;55.672;37.628;2023-04-25T02:36:09;99247.78;;;13.53;43.63
76205;BME280;64986;55.672;37.628;2023-04-25T02:38:34;99241.69;;;13.53;43.53
76205;BME280;64986;55.672;37.628;2023-04-25T02:41:00;99244.09;;;13.54;42.99
76205;BME280;64986;55.672;37.628;2023-04-25T02:43:26;99251.31;;;13.59;43.31
76205;BME280;64986;55.672;37.628;2023-04-25T02:45:51;99252.72;;;13.62;42.99
76205;BME280;64986;55.672;37.628;2023-04-25T02:48:17;99252.03;;;13.66;42.77
76205;BME280;64986;55.672;37.628;2023-04-25T02:50:42;99258.47;;;13.70;42.74
76205;BME280;64986;55.672;37.628;2023-04-25T02:53:08;99254.78;;;13.71;42.51
76205;BME280;64986;55.672;37.628;2023-04-25T02:55:33;99254.09;;;13.76;42.51
76205;BME280;64986;55.672;37.628;2023-04-25T02:57:59;99244.31;;;13.65;42.63
76205;BME280;64986;55.672;37.628;2023-04-25T03:00:25;99256.63;;;13.71;43.14
76205;BME280;64986;55.672;37.628;2023-04-25T03:02:51;99257.66;;;13.70;42.52
76205;BME280;64986;55.672;37.628;2023-04-25T03:05:16;99259.16;;;13.66;42.60
76205;BME280;64986;55.672;37.628;2023-04-25T03:07:42;99250.19;;;13.67;42.67
76205;BME280;64986;55.672;37.628;2023-04-25T03:10:09;99261.22;;;13.64;43.05
76205;BME280;64986;55.672;37.628;2023-04-25T03:12:35;99267.31;;;13.64;43.64
76205;BME280;64986;55.672;37.628;2023-04-25T03:15:01;99267.56;;;13.63;43.65
76205;BME280;64986;55.672;37.628;2023-04-25T03:17:26;99267.78;;;13.61;43.90
76205;BME280;64986;55.672;37.628;2023-04-25T03:19:51;99274.09;;;13.48;44.88
76205;BME280;64986;55.672;37.628;2023-04-25T03:22:17;99270.28;;;13.44;45.12
76205;BME280;64986;55.672;37.628;2023-04-25T03:24:43;99257.41;;;13.36;44.86
76205;BME280;64986;55.672;37.628;2023-04-25T03:27:09;99262.34;;;13.44;45.39
76205;BME280;64986;55.672;37.628;2023-04-25T03:29:34;99263.41;;;13.43;45.54
76205;BME280;64986;55.672;37.628;2023-04-25T03:32:00;99276.03;;;13.41;45.49
76205;BME280;64986;55.672;37.628;2023-04-25T03:34:26;99269.59;;;13.37;46.06
76205;BME280;64986;55.672;37.628;2023-04-25T03:36:51;99273.28;;;13.36;46.39
76205;BME280;64986;55.672;37.628;2023-04-25T03:39:17;99263.84;;;13.28;46.35
76205;BME280;64986;55.672;37.628;2023-04-25T03:41:42;99267.47;;;13.16;46.43
76205;BME280;64986;55.672;37.628;2023-04-25T03:44:08;99269.00;;;13.23;46.69
76205;BME280;64986;55.672;37.628;2023-04-25T03:46:33;99271.06;;;13.21;46.82
76205;BME280;64986;55.672;37.628;2023-04-25T03:48:59;99277.94;;;13.22;46.81
76205;BME280;64986;55.672;37.628;2023-04-25T03:51:25;99276.16;;;13.23;47.04
76205;BME280;64986;55.672;37.628;2023-04-25T03:53:51;99279.00;;;13.21;47.04
76205;BME280;64986;55.672;37.628;2023-04-25T03:56:17;99275.53;;;13.21;47.24
76205;BME280;64986;55.672;37.628;2023-04-25T03:58:43;99268.38;;;13.10;48.12
76205;BME280;64986;55.672;37.628;2023-04-25T04:01:09;99263.91;;;13.10;48.11
76205;BME280;64986;55.672;37.628;2023-04-25T04:03:35;99268.81;;;13.06;48.17
76205;BME280;64986;55.672;37.628;2023-04-25T04:06:04;99266.69;;;13.15;47.89
76205;BME280;64986;55.672;37.628;2023-04-25T04:08:31;99263.44;;;13.13;48.16
76205;BME280;64986;55.672;37.628;2023-04-25T04:10:57;99282.31;;;13.17;47.97
76205;BME280;64986;55.672;37.628;2023-04-25T04:13:24;99271.44;;;13.25;47.96
76205;BME280;64986;55.672;37.628;2023-04-25T04:15:50;99266.84;;;13.32;47.72
76205;BME280;64986;55.672;37.628;2023-04-25T04:18:16;99278.44;;;13.43;47.59
76205;BME280;64986;55.672;37.628;2023-04-25T04:20:41;99279.16;;;13.38;47.72
76205;BME280;64986;55.672;37.628;2023-04-25T04:23:07;99272.47;;;13.36;48.09
76205;BME280;64986;55.672;37.628;2023-04-25T04:25:32;99272.38;;;13.30;48.58
76205;BME280;64986;55.672;37.628;2023-04-25T04:27:58;99278.81;;;13.46;48.09
76205;BME280;64986;55.672;37.628;2023-04-25T04:30:24;99267.09;;;13.54;47.61
76205;BME280;64986;55.672;37.628;2023-04-25T04:32:51;99271.69;;;13.58;47.72
76205;BME280;64986;55.672;37.628;2023-04-25T04:35:17;99263.41;;;13.67;47.69
76205;BME280;64986;55.672;37.628;2023-04-25T04:37:42;99267.53;;;13.74;47.74
76205;BME280;64986;55.672;37.628;2023-04-25T04:40:09;99266.97;;;13.72;47.47
76205;BME280;64986;55.672;37.628;2023-04-25T04:42:35;99268.72;;;13.78;47.07
76205;BME280;64986;55.672;37.628;2023-04-25T04:45:01;99271.25;;;13.85;46.76
76205;BME280;64986;55.672;37.628;2023-04-25T04:47:29;99271.81;;;13.87;46.63
76205;BME280;64986;55.672;37.628;2023-04-25T04:49:57;99268.69;;;13.90;46.95
76205;BME280;64986;55.672;37.628;2023-04-25T04:52:23;99265.00;;;14.03;46.81
76205;BME280;64986;55.672;37.628;2023-04-25T04:54:48;99268.88;;;14.12;46.66
76205;BME280;64986;55.672;37.628;2023-04-25T04:57:14;99262.66;;;14.18;46.52
76205;BME280;64986;55.672;37.628;2023-04-25T04:59:39;99266.56;;;14.27;46.52
76205;BME280;64986;55.672;37.628;2023-04-25T05:02:05;99260.56;;;14.32;46.42
76205;BME280;64986;55.672;37.628;2023-04-25T05:04:30;99262.97;;;14.33;46.58
76205;BME280;64986;55.672;37.628;2023-04-25T05:06:56;99255.47;;;14.42;46.29
76205;BME280;64986;55.672;37.628;2023-04-25T05:09:21;99259.50;;;14.44;46.67
76205;BME280;64986;55.672;37.628;2023-04-25T05:11:51;99262.25;;;14.50;46.01
76205;BME280;64986;55.672;37.628;2023-04-25T05:14:17;99261.09;;;14.57;46.28
76205;BME280;64986;55.672;37.628;2023-04-25T05:16:43;99259.25;;;14.58;45.83
76205;BME280;64986;55.672;37.628;2023-04-25T05:19:08;99260.16;;;14.63;45.71
76205;BME280;64986;55.672;37.628;2023-04-25T05:21:34;99260.16;;;14.63;45.71
76205;BME280;64986;55.672;37.628;2023-04-25T05:24:00;99261.91;;;15.14;44.89
76205;BME280;64986;55.672;37.628;2023-04-25T05:26:25;99260.25;;;14.68;45.36
76205;BME280;64986;55.672;37.628;2023-04-25T05:28:51;99253.28;;;14.79;45.22
76205;BME280;64986;55.672;37.628;2023-04-25T05:31:17;99256.84;;;14.85;45.26
76205;BME280;64986;55.672;37.628;2023-04-25T05:33:42;99250.66;;;14.96;44.82
76205;BME280;64986;55.672;37.628;2023-04-25T05:36:08;99264.00;;;15.01;44.24
76205;BME280;64986;55.672;37.628;2023-04-25T05:38:33;99248.91;;;15.02;44.34
76205;BME280;64986;55.672;37.628;2023-04-25T05:40:59;99247.31;;;15.17;44.14
76205;BME280;64986;55.672;37.628;2023-04-25T05:43:25;99251.66;;;15.23;43.87
76205;BME280;64986;55.672;37.628;2023-04-25T05:45:50;99252.63;;;15.34;43.56
76205;BME280;64986;55.672;37.628;2023-04-25T05:48:16;99251.44;;;15.42;43.46
76205;BME280;64986;55.672;37.628;2023-04-25T05:50:41;99242.47;;;15.48;43.34
76205;BME280;64986;55.672;37.628;2023-04-25T05:53:07;99244.81;;;15.44;43.01
76205;BME280;64986;55.672;37.628;2023-04-25T05:55:32;99242.00;;;15.68;42.83
76205;BME280;64986;55.672;37.628;2023-04-25T05:57:58;99241.31;;;15.94;42.28
76205;BME280;64986;55.672;37.628;2023-04-25T06:00:23;99234.91;;;16.12;41.62
76205;BME280;64986;55.672;37.628;2023-04-25T06:02:49;99242.50;;;16.25;41.25
76205;BME280;64986;55.672;37.628;2023-04-25T06:05:15;99236.69;;;16.28;41.15
76205;BME280;64986;55.672;37.628;2023-04-25T06:07:40;99231.81;;;16.20;40.96
76205;BME280;64986;55.672;37.628;2023-04-25T06:10:08;99226.88;;;16.29;41.08
76205;BME280;64986;55.672;37.628;2023-04-25T06:12:33;99227.06;;;16.22;40.93
76205;BME280;64986;55.672;37.628;2023-04-25T06:14:59;99218.97;;;16.12;40.63
76205;BME280;64986;55.672;37.628;2023-04-25T06:17:25;99211.56;;;16.14;40.34
76205;BME280;64986;55.672;37.628;2023-04-25T06:19:50;99209.53;;;16.21;40.20
76205;BME280;64986;55.672;37.628;2023-04-25T06:22:16;99204.47;;;16.20;40.32
76205;BME280;64986;55.672;37.628;2023-04-25T06:24:41;99206.88;;;16.21;40.16
76205;BME280;64986;55.672;37.628;2023-04-25T06:27:07;99201.19;;;16.34;40.02
76205;BME280;64986;55.672;37.628;2023-04-25T06:29:32;99216.56;;;16.59;39.59
76205;BME280;64986;55.672;37.628;2023-04-25T06:31:58;99213.28;;;16.74;39.45
76205;BME280;64986;55.672;37.628;2023-04-25T06:34:23;99208.03;;;16.79;38.92
76205;BME280;64986;55.672;37.628;2023-04-25T06:36:49;99200.13;;;16.89;38.67
76205;BME280;64986;55.672;37.628;2023-04-25T06:39:14;99186.69;;;17.01;38.02
76205;BME280;64986;55.672;37.628;2023-04-25T06:41:40;99205.63;;;17.10;37.61
76205;BME280;64986;55.672;37.628;2023-04-25T06:44:06;99200.34;;;17.15;37.71
76205;BME280;64986;55.672;37.628;2023-04-25T06:46:31;99203.31;;;17.18;37.70
76205;BME280;64986;55.672;37.628;2023-04-25T06:48:57;99204.44;;;17.28;37.42
76205;BME280;64986;55.672;37.628;2023-04-25T06:51:22;99206.28;;;17.27;37.31
76205;BME280;64986;55.672;37.628;2023-04-25T06:53:49;99202.56;;;17.28;37.01
76205;BME280;64986;55.672;37.628;2023-04-25T06:56:15;99194.91;;;17.37;36.75
76205;BME280;64986;55.672;37.628;2023-04-25T06:58:41;99199.03;;;17.55;35.85
76205;BME280;64986;55.672;37.628;2023-04-25T07:01:06;99195.31;;;17.56;35.37
76205;BME280;64986;55.672;37.628;2023-04-25T07:03:32;99202.22;;;17.57;35.79
76205;BME280;64986;55.672;37.628;2023-04-25T07:05:57;99185.72;;;17.55;36.11
76205;BME280;64986;55.672;37.628;2023-04-25T07:08:23;99206.13;;;17.76;35.84
76205;BME280;64986;55.672;37.628;2023-04-25T07:10:48;99213.13;;;17.97;36.20
76205;BME280;64986;55.672;37.628;2023-04-25T07:13:14;99203.06;;;18.10;35.56
76205;BME280;64986;55.672;37.628;2023-04-25T07:15:39;99206.00;;;18.18;35.40
76205;BME280;64986;55.672;37.628;2023-04-25T07:18:05;99206.84;;;18.24;35.39
76205;BME280;64986;55.672;37.628;2023-04-25T07:20:30;99196.66;;;18.11;35.17
76205;BME280;64986;55.672;37.628;2023-04-25T07:22:57;99205.00;;;18.29;35.00
76205;BME280;64986;55.672;37.628;2023-04-25T07:25:23;99203.63;;;18.27;34.87
76205;BME280;64986;55.672;37.628;2023-04-25T07:27:50;99201.28;;;18.30;34.61
76205;BME280;64986;55.672;37.628;2023-04-25T07:30:16;99205.78;;;18.25;34.29
76205;BME280;64986;55.672;37.628;2023-04-25T07:32:41;99195.88;;;18.20;34.74
76205;BME280;64986;55.672;37.628;2023-04-25T07:35:07;99199.09;;;18.17;34.63
76205;BME280;64986;55.672;37.628;2023-04-25T07:37:34;99199.41;;;18.31;34.71
76205;BME280;64986;55.672;37.628;2023-04-25T07:40:00;99201.03;;;18.37;34.44
76205;BME280;64986;55.672;37.628;2023-04-25T07:42:25;99197.31;;;18.48;34.09
76205;BME280;64986;55.672;37.628;2023-04-25T07:44:51;99213.31;;;18.53;34.21
76205;BME280;64986;55.672;37.628;2023-04-25T07:47:17;99205.84;;;18.55;34.01
76205;BME280;64986;55.672;37.628;2023-04-25T07:49:44;99214.44;;;18.68;34.31
76205;BME280;64986;55.672;37.628;2023-04-25T07:52:10;99213.94;;;18.91;33.78
76205;BME280;64986;55.672;37.628;2023-04-25T07:54:36;99207.53;;;19.07;33.28
76205;BME280;64986;55.672;37.628;2023-04-25T07:57:01;99209.41;;;19.27;32.58
76205;BME280;64986;55.672;37.628;2023-04-25T07:59:27;99197.59;;;19.54;32.01
76205;BME280;64986;55.672;37.628;2023-04-25T08:01:53;99206.88;;;19.87;31.86
76205;BME280;64986;55.672;37.628;2023-04-25T08:04:18;99203.56;;;20.15;31.20
76205;BME280;64986;55.672;37.628;2023-04-25T08:06:44;99206.22;;;20.26;31.03
76205;BME280;64986;55.672;37.628;2023-04-25T08:09:10;99206.97;;;20.36;30.94
76205;BME280;64986;55.672;37.628;2023-04-25T08:11:36;99200.97;;;20.05;30.84
76205;BME280;64986;55.672;37.628;2023-04-25T08:14:02;99211.56;;;20.26;30.46
76205;BME280;64986;55.672;37.628;2023-04-25T08:16:28;99201.31;;;20.38;30.11
76205;BME280;64986;55.672;37.628;2023-04-25T08:18:54;99201.56;;;20.52;30.21
76205;BME280;64986;55.672;37.628;2023-04-25T08:21:19;99191.22;;;20.79;30.36
76205;BME280;64986;55.672;37.628;2023-04-25T08:23:45;99191.31;;;20.98;29.85
76205;BME280;64986;55.672;37.628;2023-04-25T08:26:11;99194.09;;;20.88;30.32
76205;BME280;64986;55.672;37.628;2023-04-25T08:28:37;99184.34;;;20.63;30.82
76205;BME280;64986;55.672;37.628;2023-04-25T08:31:02;99192.81;;;20.80;30.66
76205;BME280;64986;55.672;37.628;2023-04-25T08:33:28;99189.72;;;20.97;30.39
76205;BME280;64986;55.672;37.628;2023-04-25T08:35:54;99177.00;;;21.13;30.50
76205;BME280;64986;55.672;37.628;2023-04-25T08:38:19;99177.78;;;21.18;30.01
76205;BME280;64986;55.672;37.628;2023-04-25T08:40:49;99185.34;;;21.11;29.85
76205;BME280;64986;55.672;37.628;2023-04-25T08:43:18;99184.22;;;21.17;29.38
76205;BME280;64986;55.672;37.628;2023-04-25T08:45:44;99183.91;;;20.90;29.56
76205;BME280;64986;55.672;37.628;2023-04-25T08:48:16;99181.22;;;20.90;29.06
76205;BME280;64986;55.672;37.628;2023-04-25T08:50:49;99182.41;;;20.78;29.54
76205;BME280;64986;55.672;37.628;2023-04-25T08:53:16;99167.13;;;20.79;29.39
76205;BME280;64986;55.672;37.628;2023-04-25T08:55:46;99179.94;;;20.38;29.71
76205;BME280;64986;55.672;37.628;2023-04-25T08:58:12;99170.59;;;20.40;29.44
76205;BME280;64986;55.672;37.628;2023-04-25T09:00:38;99170.94;;;20.73;29.13
76205;BME280;64986;55.672;37.628;2023-04-25T09:03:04;99165.59;;;21.02;29.04
76205;BME280;64986;55.672;37.628;2023-04-25T09:05:30;99170.00;;;20.88;28.52
76205;BME280;64986;55.672;37.628;2023-04-25T09:07:55;99149.44;;;21.12;28.24
76205;BME280;64986;55.672;37.628;2023-04-25T09:10:22;99166.97;;;21.57;28.11
76205;BME280;64986;55.672;37.628;2023-04-25T09:13:06;99156.91;;;22.16;26.71
76205;BME280;64986;55.672;37.628;2023-04-25T09:15:47;99163.78;;;22.41;26.80
76205;BME280;64986;55.672;37.628;2023-04-25T09:18:13;99154.34;;;22.62;26.81
76205;BME280;64986;55.672;37.628;2023-04-25T09:20:42;99157.13;;;23.09;26.08
76205;BME280;64986;55.672;37.628;2023-04-25T09:23:08;99141.44;;;23.57;25.72
76205;BME280;64986;55.672;37.628;2023-04-25T09:25:37;99135.66;;;24.05;24.32
76205;BME280;64986;55.672;37.628;2023-04-25T09:28:05;99132.75;;;24.51;23.78
76205;BME280;64986;55.672;37.628;2023-04-25T09:30:33;99138.06;;;25.41;23.13
76205;BME280;64986;55.672;37.628;2023-04-25T09:33:07;99186.56;;;26.98;21.46
76205;BME280;64986;55.672;37.628;2023-04-25T09:36:05;99136.41;;;27.74;21.34
76205;BME280;64986;55.672;37.628;2023-04-25T09:38:41;99126.94;;;28.84;19.15
76205;BME280;64986;55.672;37.628;2023-04-25T09:41:07;99119.09;;;28.91;19.00
76205;BME280;64986;55.672;37.628;2023-04-25T09:43:33;99136.88;;;29.38;18.52
76205;BME280;64986;55.672;37.628;2023-04-25T09:45:58;99124.56;;;30.01;18.11
76205;BME280;64986;55.672;37.628;2023-04-25T09:48:26;99127.25;;;30.26;17.93
76205;BME280;64986;55.672;37.628;2023-04-25T09:51:13;99115.84;;;29.96;17.44
76205;BME280;64986;55.672;37.628;2023-04-25T09:53:46;99115.38;;;29.08;18.28
76205;BME280;64986;55.672;37.628;2023-04-25T09:56:14;99111.88;;;28.62;18.78
76205;BME280;64986;55.672;37.628;2023-04-25T09:58:41;99122.91;;;27.95;19.49
76205;BME280;64986;55.672;37.628;2023-04-25T10:01:10;99112.97;;;27.78;19.36
76205;BME280;64986;55.672;37.628;2023-04-25T10:03:38;99108.53;;;27.82;19.35
76205;BME280;64986;55.672;37.628;2023-04-25T10:06:11;99115.25;;;27.97;19.46
76205;BME280;64986;55.672;37.628;2023-04-25T10:08:38;99108.91;;;28.55;18.86
76205;BME280;64986;55.672;37.628;2023-04-25T10:11:05;99107.38;;;29.97;18.03
76205;BME280;64986;55.672;37.628;2023-04-25T10:13:33;99106.22;;;30.94;16.90
76205;BME280;64986;55.672;37.628;2023-04-25T10:16:00;99098.97;;;31.97;15.93
76205;BME280;64986;55.672;37.628;2023-04-25T10:18:26;99096.34;;;33.50;14.61
76205;BME280;64986;55.672;37.628;2023-04-25T10:21:01;99098.25;;;35.07;14.05
76205;BME280;64986;55.672;37.628;2023-04-25T10:23:27;99094.44;;;35.81;13.53
76205;BME280;64986;55.672;37.628;2023-04-25T10:25:55;99077.13;;;36.39;12.86
76205;BME280;64986;55.672;37.628;2023-04-25T10:28:21;99085.41;;;36.78;12.62
76205;BME280;64986;55.672;37.628;2023-04-25T10:31:02;99092.53;;;37.01;12.28
76205;BME280;64986;55.672;37.628;2023-04-25T10:33:39;99085.28;;;36.25;12.14
76205;BME280;64986;55.672;37.628;2023-04-25T10:38:39;99073.44;;;34.89;12.60
76205;BME280;64986;55.672;37.628;2023-04-25T10:41:11;99063.97;;;34.80;12.55
76205;BME280;64986;55.672;37.628;2023-04-25T10:43:41;99070.69;;;35.96;12.48
76205;BME280;64986;55.672;37.628;2023-04-25T10:46:24;99069.72;;;36.50;11.52
76205;BME280;64986;55.672;37.628;2023-04-25T10:48:55;99055.66;;;37.09;12.08
76205;BME280;64986;55.672;37.628;2023-04-25T10:56:30;99046.63;;;38.39;10.98
76205;BME280;64986;55.672;37.628;2023-04-25T10:59:15;99052.50;;;37.49;11.11
76205;BME280;64986;55.672;37.628;2023-04-25T11:01:51;99051.38;;;36.90;11.10
76205;BME280;64986;55.672;37.628;2023-04-25T11:04:28;99039.28;;;34.35;12.85
76205;BME280;64986;55.672;37.628;2023-04-25T11:09:26;99040.28;;;29.58;16.68
76205;BME280;64986;55.672;37.628;2023-04-25T11:11:55;99034.25;;;31.55;15.05
76205;BME280;64986;55.672;37.628;2023-04-25T11:14:22;99030.53;;;33.06;14.28
76205;BME280;64986;55.672;37.628;2023-04-25T11:16:53;99023.66;;;34.32;13.07
76205;BME280;64986;55.672;37.628;2023-04-25T11:19:20;99017.44;;;34.35;13.37
76205;BME280;64986;55.672;37.628;2023-04-25T11:21:45;99022.28;;;33.82;13.54
76205;BME280;64986;55.672;37.628;2023-04-25T11:24:11;99020.13;;;33.11;14.02
76205;BME280;64986;55.672;37.628;2023-04-25T11:26:37;99016.41;;;32.12;14.51
76205;BME280;64986;55.672;37.628;2023-04-25T11:29:02;99015.22;;;31.74;15.04
76205;BME280;64986;55.672;37.628;2023-04-25T11:31:29;99002.53;;;32.63;14.47
76205;BME280;64986;55.672;37.628;2023-04-25T11:33:56;99017.06;;;33.17;14.19
76205;BME280;64986;55.672;37.628;2023-04-25T11:36:23;99001.31;;;32.18;14.71
76205;BME280;64986;55.672;37.628;2023-04-25T11:38:50;99005.13;;;31.75;14.98
76205;BME280;64986;55.672;37.628;2023-04-25T11:41:17;98998.59;;;31.09;15.53
76205;BME280;64986;55.672;37.628;2023-04-25T11:43:43;98992.22;;;31.02;15.35
76205;BME280;64986;55.672;37.628;2023-04-25T11:46:09;98992.28;;;31.37;15.42
76205;BME280;64986;55.672;37.628;2023-04-25T11:48:39;98999.59;;;31.52;15.22
76205;BME280;64986;55.672;37.628;2023-04-25T11:51:05;98987.63;;;31.06;15.58
76205;BME280;64986;55.672;37.628;2023-04-25T11:53:30;98979.69;;;30.22;16.44
76205;BME280;64986;55.672;37.628;2023-04-25T11:55:56;98981.47;;;29.74;16.83
76205;BME280;64986;55.672;37.628;2023-04-25T11:58:22;98981.84;;;29.48;16.75
76205;BME280;64986;55.672;37.628;2023-04-25T12:00:48;98973.22;;;29.18;17.37
76205;BME280;64986;55.672;37.628;2023-04-25T12:03:13;98961.84;;;29.52;17.33
76205;BME280;64986;55.672;37.628;2023-04-25T12:05:39;98972.34;;;29.94;17.07
76205;BME280;64986;55.672;37.628;2023-04-25T12:08:15;98974.34;;;30.69;16.52
76205;BME280;64986;55.672;37.628;2023-04-25T12:10:43;98959.06;;;30.96;16.22
76205;BME280;64986;55.672;37.628;2023-04-25T12:13:22;98965.72;;;31.69;15.59
76205;BME280;64986;55.672;37.628;2023-04-25T12:15:48;98961.56;;;31.36;15.77
76205;BME280;64986;55.672;37.628;2023-04-25T12:18:14;98952.38;;;31.09;16.00
76205;BME280;64986;55.672;37.628;2023-04-25T12:20:41;98957.88;;;30.78;16.29
76205;BME280;64986;55.672;37.628;2023-04-25T12:23:07;98951.00;;;30.68;16.45
76205;BME280;64986;55.672;37.628;2023-04-25T12:25:41;98954.53;;;30.69;16.51
76205;BME280;64986;55.672;37.628;2023-04-25T12:33:29;98938.28;;;29.28;17.74
76205;BME280;64986;55.672;37.628;2023-04-25T12:35:56;98941.97;;;29.48;17.77
76205;BME280;64986;55.672;37.628;2023-04-25T12:38:23;98924.47;;;29.74;17.43
76205;BME280;64986;55.672;37.628;2023-04-25T12:40:49;98911.09;;;29.53;17.67
76205;BME280;64986;55.672;37.628;2023-04-25T12:43:14;98908.44;;;29.28;17.94
76205;BME280;64986;55.672;37.628;2023-04-25T12:45:40;98912.88;;;29.89;17.55
76205;BME280;64986;55.672;37.628;2023-04-25T12:48:06;98907.63;;;30.24;17.33
76205;BME280;64986;55.672;37.628;2023-04-25T12:50:31;98909.38;;;30.17;17.19
76205;BME280;64986;55.672;37.628;2023-04-25T12:52:57;98907.25;;;30.89;16.56
76205;BME280;64986;55.672;37.628;2023-04-25T12:55:22;98896.41;;;31.24;16.08
76205;BME280;64986;55.672;37.628;2023-04-25T12:57:48;98896.28;;;31.36;16.07
76205;BME280;64986;55.672;37.628;2023-04-25T13:00:14;98892.31;;;31.92;15.78
76205;BME280;64986;55.672;37.628;2023-04-25T13:02:40;98883.56;;;32.74;14.75
76205;BME280;64986;55.672;37.628;2023-04-25T13:05:06;98880.09;;;33.34;14.67